createdAt,value
2022-07-26T00:00:46.794Z,16.66
2022-07-26T00:03:13.417Z,16.55
2022-07-26T00:05:39.810Z,16.61
2022-07-26T00:08:13.064Z,16.52
2022-07-26T00:10:41.111Z,16.53
2022-07-26T00:13:07.648Z,16.72
2022-07-26T00:15:34.327Z,16.70
2022-07-26T00:18:00.824Z,16.71
2022-07-26T00:20:27.478Z,16.82
2022-07-26T00:22:54.110Z,16.60
2022-07-26T00:25:20.609Z,16.53
2022-07-26T00:27:46.994Z,16.52
2022-07-26T00:30:14.251Z,16.48
2022-07-26T00:32:40.925Z,16.46
2022-07-26T00:35:07.799Z,16.54
2022-07-26T00:37:34.280Z,16.30
2022-07-26T00:40:00.671Z,16.35
2022-07-26T00:42:27.103Z,16.35
2022-07-26T00:44:53.462Z,16.41
2022-07-26T00:47:19.835Z,16.38
2022-07-26T00:49:46.222Z,16.51
2022-07-26T00:52:13.208Z,16.54
2022-07-26T00:54:40.341Z,16.45
2022-07-26T00:57:07.118Z,16.41
2022-07-26T00:59:33.712Z,16.47
2022-07-26T01:02:00.257Z,16.51
2022-07-26T01:04:27.378Z,16.56
2022-07-26T01:06:54.342Z,16.66
2022-07-26T01:09:20.721Z,16.52
2022-07-26T01:11:47.132Z,16.37
2022-07-26T01:14:13.617Z,16.27
2022-07-26T01:16:40.167Z,16.49
2022-07-26T01:19:06.642Z,16.40
2022-07-26T01:21:33.797Z,16.39
2022-07-26T01:24:00.292Z,16.26
2022-07-26T01:26:26.646Z,15.99
2022-07-26T01:28:53.065Z,16.26
2022-07-26T01:31:19.588Z,15.96
2022-07-26T01:33:46.082Z,16.15
2022-07-26T01:36:12.778Z,16.09
2022-07-26T01:38:39.964Z,16.02
2022-07-26T01:41:06.424Z,16.09
2022-07-26T01:43:32.887Z,16.05
2022-07-26T01:45:59.341Z,16.10
2022-07-26T01:48:25.821Z,15.99
2022-07-26T01:50:52.166Z,16.10
2022-07-26T01:53:18.526Z,16.00
2022-07-26T01:55:44.893Z,15.99
2022-07-26T01:58:11.243Z,15.95
2022-07-26T02:00:37.604Z,15.84
2022-07-26T02:03:04.206Z,15.96
2022-07-26T02:05:30.742Z,15.92
2022-07-26T02:07:57.166Z,15.81
2022-07-26T02:10:23.605Z,15.83
2022-07-26T02:12:50.185Z,15.91
2022-07-26T02:15:16.754Z,16.05
2022-07-26T02:17:43.502Z,16.04
2022-07-26T02:20:10.024Z,15.92
2022-07-26T02:22:36.385Z,15.87
2022-07-26T02:25:05.252Z,15.91
2022-07-26T02:27:32.170Z,15.92
2022-07-26T02:29:58.519Z,15.68
2022-07-26T02:32:24.888Z,15.86
2022-07-26T02:34:51.265Z,16.06
2022-07-26T02:37:17.651Z,15.96
2022-07-26T02:39:44.073Z,15.74
2022-07-26T02:42:10.428Z,15.72
2022-07-26T02:44:36.908Z,15.72
2022-07-26T02:47:03.301Z,15.77
2022-07-26T02:49:29.682Z,15.68
2022-07-26T02:51:56.009Z,15.63
2022-07-26T02:54:22.626Z,15.61
2022-07-26T02:56:48.974Z,15.75
2022-07-26T02:59:15.431Z,15.66
2022-07-26T03:01:41.839Z,15.60
2022-07-26T03:04:08.691Z,15.84
2022-07-26T03:06:35.497Z,15.73
2022-07-26T03:09:02.031Z,15.61
2022-07-26T03:11:28.425Z,15.68
2022-07-26T03:13:54.896Z,15.48
2022-07-26T03:16:24.790Z,15.44
2022-07-26T03:18:53.795Z,15.54
2022-07-26T03:21:20.167Z,15.51
2022-07-26T03:23:46.535Z,15.45
2022-07-26T03:26:12.926Z,15.71
2022-07-26T03:28:42.062Z,15.72
2022-07-26T03:31:08.895Z,15.66
2022-07-26T03:33:35.347Z,15.71
2022-07-26T03:36:01.774Z,15.56
2022-07-26T03:38:28.229Z,15.70
2022-07-26T03:40:54.582Z,15.64
2022-07-26T03:43:23.288Z,15.54
2022-07-26T03:45:50.275Z,15.61
2022-07-26T03:48:16.818Z,15.72
2022-07-26T03:50:43.261Z,15.68
2022-07-26T03:53:09.647Z,15.59
2022-07-26T03:55:54.750Z,15.74
2022-07-26T03:58:21.148Z,15.87
2022-07-26T04:00:47.518Z,15.82
2022-07-26T04:03:13.949Z,15.70
2022-07-26T04:05:40.413Z,15.73
2022-07-26T04:08:14.954Z,15.64
2022-07-26T04:10:44.674Z,15.81
2022-07-26T04:13:11.036Z,15.72
2022-07-26T04:15:37.406Z,15.92
2022-07-26T04:18:03.839Z,15.91
2022-07-26T04:20:30.281Z,15.95
2022-07-26T04:22:56.660Z,15.89
2022-07-26T04:25:23.057Z,15.88
2022-07-26T04:27:49.428Z,15.84
2022-07-26T04:30:16.009Z,15.93
2022-07-26T04:32:43.059Z,16.00
2022-07-26T04:35:10.609Z,16.13
2022-07-26T04:37:43.975Z,16.24
2022-07-26T04:40:11.380Z,16.36
2022-07-26T04:42:39.355Z,16.58
2022-07-26T04:45:08.491Z,16.49
2022-07-26T04:47:35.484Z,16.41
2022-07-26T04:50:02.980Z,16.41
2022-07-26T04:52:29.335Z,16.67
2022-07-26T04:54:55.704Z,16.50
2022-07-26T04:57:22.074Z,16.64
2022-07-26T05:00:03.456Z,16.67
2022-07-26T05:02:35.009Z,16.76
2022-07-26T05:05:01.413Z,16.77
2022-07-26T05:07:27.763Z,16.71
2022-07-26T05:09:54.167Z,16.71
2022-07-26T05:12:20.546Z,16.82
2022-07-26T05:14:46.886Z,16.67
2022-07-26T05:17:13.534Z,16.67
2022-07-26T05:19:48.933Z,16.43
2022-07-26T05:22:15.667Z,16.49
2022-07-26T05:24:42.157Z,16.41
2022-07-26T05:27:08.864Z,16.40
2022-07-26T05:29:35.334Z,16.23
2022-07-26T05:32:01.670Z,16.35
2022-07-26T05:34:28.055Z,16.51
2022-07-26T05:36:54.404Z,16.28
2022-07-26T05:39:20.850Z,16.24
2022-07-26T05:41:47.238Z,16.49
2022-07-26T05:44:13.650Z,16.63
2022-07-26T05:46:39.995Z,16.23
2022-07-26T05:49:07.070Z,16.48
2022-07-26T05:51:33.927Z,16.43
2022-07-26T05:54:00.415Z,16.31
2022-07-26T05:56:26.778Z,16.24
2022-07-26T05:58:53.155Z,16.00
2022-07-26T06:01:19.729Z,16.40
2022-07-26T06:03:46.310Z,16.23
2022-07-26T06:06:12.737Z,16.49
2022-07-26T06:08:39.168Z,16.12
2022-07-26T06:11:05.728Z,16.27
2022-07-26T06:13:32.147Z,16.44
2022-07-26T06:15:58.655Z,16.35
2022-07-26T06:18:25.042Z,16.44
2022-07-26T06:20:51.490Z,16.85
2022-07-26T06:23:17.999Z,16.57
2022-07-26T06:26:00.302Z,16.72
2022-07-26T06:28:26.682Z,16.70
2022-07-26T06:30:53.035Z,16.96
2022-07-26T06:33:19.414Z,16.75
2022-07-26T06:35:45.776Z,16.81
2022-07-26T06:38:12.194Z,16.63
2022-07-26T06:40:38.641Z,17.03
2022-07-26T06:43:05.178Z,17.18
2022-07-26T06:45:31.952Z,16.91
2022-07-26T06:47:58.502Z,17.01
2022-07-26T06:50:25.669Z,16.89
2022-07-26T06:52:52.574Z,17.05
2022-07-26T06:55:19.203Z,16.97
2022-07-26T06:57:49.921Z,16.77
2022-07-26T07:00:17.387Z,16.21
2022-07-26T07:02:43.800Z,16.01
2022-07-26T07:05:11.924Z,15.12
2022-07-26T07:07:38.869Z,14.82
2022-07-26T07:10:05.870Z,14.70
2022-07-26T07:12:32.645Z,14.87
2022-07-26T07:14:59.033Z,14.72
2022-07-26T07:17:25.599Z,15.09
2022-07-26T07:19:51.954Z,15.28
2022-07-26T07:22:18.314Z,15.25
2022-07-26T07:24:44.724Z,15.63
2022-07-26T07:27:13.029Z,16.12
2022-07-26T07:29:43.331Z,16.26
2022-07-26T07:32:18.354Z,16.40
2022-07-26T07:34:45.854Z,16.41
2022-07-26T07:37:14.322Z,16.54
2022-07-26T07:39:40.718Z,16.59
2022-07-26T07:42:07.819Z,16.92
2022-07-26T07:44:34.185Z,16.99
2022-07-26T07:47:00.608Z,16.85
2022-07-26T07:49:27.115Z,17.04
2022-07-26T07:53:33.188Z,16.63
2022-07-26T07:56:00.136Z,16.31
2022-07-26T07:58:28.038Z,16.49
2022-07-26T08:00:55.291Z,16.73
2022-07-26T08:03:21.852Z,16.79
2022-07-26T08:05:49.576Z,17.28
2022-07-26T08:08:16.961Z,17.31
2022-07-26T08:10:51.476Z,17.50
2022-07-26T08:13:21.460Z,17.91
2022-07-26T08:15:52.848Z,17.93
2022-07-26T08:18:22.344Z,17.97
2022-07-26T08:20:49.921Z,17.38
2022-07-26T08:23:16.438Z,17.11
2022-07-26T08:25:55.625Z,16.56
2022-07-26T08:28:45.250Z,16.25
2022-07-26T08:31:09.687Z,16.57
2022-07-26T08:33:36.339Z,16.16
2022-07-26T08:36:07.405Z,16.43
2022-07-26T08:38:33.919Z,16.19
2022-07-26T08:41:00.448Z,16.14
2022-07-26T08:43:26.987Z,16.40
2022-07-26T08:46:00.817Z,16.55
2022-07-26T08:48:27.406Z,16.96
2022-07-26T08:50:55.749Z,16.87
2022-07-26T08:53:23.144Z,16.91
2022-07-26T08:56:06.352Z,16.98
2022-07-26T08:58:36.396Z,16.81
2022-07-26T09:01:12.847Z,16.75
2022-07-26T09:03:40.398Z,17.27
2022-07-26T09:06:26.298Z,17.42
2022-07-26T09:09:10.872Z,17.84
2022-07-26T09:11:37.822Z,18.40
2022-07-26T09:14:05.990Z,18.70
2022-07-26T09:16:37.550Z,18.31
2022-07-26T09:19:22.376Z,17.43
2022-07-26T09:21:50.250Z,17.34
2022-07-26T09:24:42.962Z,17.71
2022-07-26T09:27:12.424Z,17.84
2022-07-26T09:29:53.363Z,18.28
2022-07-26T09:32:29.543Z,18.62
2022-07-26T09:35:44.149Z,18.76
2022-07-26T09:37:57.072Z,18.57
2022-07-26T09:40:30.825Z,18.37
2022-07-26T09:42:58.575Z,17.74
2022-07-26T09:45:28.071Z,17.10
2022-07-26T09:47:55.076Z,17.36
2022-07-26T09:50:24.526Z,17.33
2022-07-26T09:53:22.725Z,17.61
2022-07-26T09:55:49.140Z,17.90
2022-07-26T09:58:16.773Z,17.37
2022-07-26T10:00:44.042Z,17.49
2022-07-26T10:03:11.169Z,18.09
2022-07-26T10:05:37.882Z,18.85
2022-07-26T10:08:05.052Z,18.85
2022-07-26T10:10:40.045Z,18.55
2022-07-26T10:13:08.498Z,18.46
2022-07-26T10:15:36.612Z,19.05
2022-07-26T10:18:05.188Z,18.03
2022-07-26T10:20:43.110Z,17.53
2022-07-26T10:23:36.188Z,17.32
2022-07-26T10:26:05.397Z,17.49
2022-07-26T10:28:33.759Z,17.89
2022-07-26T10:31:19.432Z,17.93
2022-07-26T10:33:49.580Z,18.39
2022-07-26T10:36:28.743Z,18.99
2022-07-26T10:39:02.257Z,19.41
2022-07-26T10:41:34.884Z,19.56
2022-07-26T10:44:22.663Z,18.80
2022-07-26T10:47:08.873Z,18.28
2022-07-26T10:49:58.796Z,18.01
2022-07-26T10:52:31.105Z,18.82
2022-07-26T10:54:58.022Z,20.06
2022-07-26T10:57:25.964Z,18.89
2022-07-26T10:59:56.206Z,19.14
2022-07-26T11:02:27.852Z,18.76
2022-07-26T11:05:15.629Z,19.39
2022-07-26T11:07:52.719Z,19.51
2022-07-26T11:10:41.913Z,19.73
2022-07-26T11:13:19.792Z,21.19
2022-07-26T11:15:54.429Z,21.30
2022-07-26T11:18:26.188Z,21.61
2022-07-26T11:20:55.955Z,21.89
2022-07-26T11:23:34.216Z,20.44
2022-07-26T11:26:08.171Z,20.53
2022-07-26T11:28:45.026Z,21.97
2022-07-26T11:31:13.068Z,20.81
2022-07-26T11:33:45.204Z,20.86
2022-07-26T11:36:12.685Z,20.36
2022-07-26T11:38:52.172Z,20.52
2022-07-26T11:41:34.897Z,20.53
2022-07-26T11:44:02.673Z,20.63
2022-07-26T11:46:35.832Z,21.54
2022-07-26T11:49:03.240Z,21.92
2022-07-26T11:51:29.835Z,21.95
2022-07-26T11:53:59.725Z,22.69
2022-07-26T11:56:28.814Z,21.95
2022-07-26T11:58:56.961Z,21.09
2022-07-26T12:01:24.836Z,19.80
2022-07-26T12:03:53.113Z,19.28
2022-07-26T12:06:20.978Z,21.12
2022-07-26T12:08:52.713Z,22.76
2022-07-26T12:11:25.597Z,22.28
2022-07-26T12:14:03.416Z,21.75
2022-07-26T12:16:54.367Z,21.31
2022-07-26T12:19:20.756Z,22.46
2022-07-26T12:21:51.794Z,22.57
2022-07-26T12:24:40.230Z,21.48
2022-07-26T12:27:10.362Z,22.25
2022-07-26T12:29:38.758Z,23.36
2022-07-26T12:32:12.787Z,21.94
2022-07-26T12:34:40.950Z,21.54
2022-07-26T12:37:12.726Z,23.75
2022-07-26T12:39:40.961Z,23.54
2022-07-26T12:42:23.849Z,21.78
2022-07-26T12:45:00.322Z,20.46
2022-07-26T12:47:30.173Z,19.25
2022-07-26T12:49:56.646Z,19.45
2022-07-26T12:52:24.087Z,20.20
2022-07-26T12:54:52.702Z,21.97
2022-07-26T12:57:20.159Z,21.07
2022-07-26T12:59:48.380Z,20.08
2022-07-26T13:02:18.891Z,19.77
2022-07-26T13:04:45.950Z,20.20
2022-07-26T13:07:13.311Z,21.23
2022-07-26T13:09:40.237Z,22.43
2022-07-26T13:12:07.480Z,23.31
2022-07-26T13:14:34.985Z,24.17
2022-07-26T13:17:02.387Z,23.70
2022-07-26T13:19:29.472Z,22.74
2022-07-26T13:21:57.485Z,22.98
2022-07-26T13:24:25.654Z,23.39
2022-07-26T13:26:54.478Z,24.23
2022-07-26T13:29:22.017Z,23.26
2022-07-26T13:31:50.997Z,20.68
2022-07-26T13:34:18.834Z,20.14
2022-07-26T13:36:46.029Z,19.77
2022-07-26T13:39:12.640Z,20.17
2022-07-26T13:41:39.261Z,22.46
2022-07-26T13:44:05.826Z,22.46
2022-07-26T13:46:33.677Z,24.55
2022-07-26T13:49:02.233Z,24.68
2022-07-26T13:51:50.084Z,24.04
2022-07-26T13:54:17.986Z,24.08
2022-07-26T13:56:45.549Z,22.78
2022-07-26T13:59:12.975Z,22.02
2022-07-26T14:01:43.538Z,21.90
2022-07-26T14:04:13.366Z,21.13
2022-07-26T14:06:40.950Z,22.58
2022-07-26T14:09:11.003Z,22.55
2022-07-26T14:11:38.664Z,21.86
2022-07-26T14:14:05.832Z,21.96
2022-07-26T14:16:33.227Z,22.41
2022-07-26T14:19:00.589Z,24.72
2022-07-26T14:21:28.679Z,24.12
2022-07-26T14:24:05.274Z,21.83
2022-07-26T14:26:32.066Z,19.62
2022-07-26T14:28:58.589Z,19.46
2022-07-26T14:31:25.386Z,18.69
2022-07-26T14:33:52.180Z,19.00
2022-07-26T14:36:18.782Z,18.96
2022-07-26T14:38:45.281Z,19.55
2022-07-26T14:41:11.988Z,19.38
2022-07-26T14:43:38.932Z,19.48
2022-07-26T14:46:05.689Z,20.19
2022-07-26T14:48:53.466Z,21.01
2022-07-26T14:51:18.620Z,19.61
2022-07-26T14:53:45.296Z,21.58
2022-07-26T14:56:11.939Z,23.28
2022-07-26T14:58:38.862Z,22.83
2022-07-26T15:01:05.435Z,20.30
2022-07-26T15:03:33.843Z,18.83
2022-07-26T15:06:00.396Z,18.91
2022-07-26T15:08:26.955Z,18.63
2022-07-26T15:10:53.604Z,18.46
2022-07-26T15:13:21.123Z,18.52
2022-07-26T15:15:50.802Z,18.58
2022-07-26T15:18:18.278Z,18.41
2022-07-26T15:20:48.049Z,18.18
2022-07-26T15:23:15.537Z,18.35
2022-07-26T15:25:45.233Z,18.44
2022-07-26T15:28:11.696Z,18.26
2022-07-26T15:30:44.134Z,17.78
2022-07-26T15:33:18.125Z,17.80
2022-07-26T15:35:46.624Z,17.88
2022-07-26T15:38:13.187Z,17.67
2022-07-26T15:40:39.917Z,18.81
2022-07-26T15:43:06.421Z,20.56
2022-07-26T15:45:37.814Z,22.01
2022-07-26T15:48:14.893Z,21.45
2022-07-26T15:50:48.072Z,19.81
2022-07-26T15:53:16.538Z,18.34
2022-07-26T15:55:43.057Z,17.73
2022-07-26T15:58:09.596Z,17.75
2022-07-26T16:00:37.704Z,18.09
2022-07-26T16:03:04.398Z,18.35
2022-07-26T16:05:31.306Z,19.31
2022-07-26T16:08:10.883Z,20.12
2022-07-26T16:10:37.558Z,22.38
2022-07-26T16:13:06.752Z,21.52
2022-07-26T16:15:33.437Z,20.28
2022-07-26T16:18:05.825Z,19.62
2022-07-26T16:20:34.072Z,21.97
2022-07-26T16:23:00.636Z,21.54
2022-07-26T16:25:27.241Z,21.93
2022-07-26T16:27:54.120Z,20.64
2022-07-26T16:30:20.948Z,21.70
2022-07-26T16:32:47.487Z,19.81
2022-07-26T16:35:13.988Z,18.83
2022-07-26T16:37:42.645Z,18.22
2022-07-26T16:40:09.921Z,18.41
2022-07-26T16:42:36.498Z,19.05
2022-07-26T16:45:03.650Z,21.48
2022-07-26T16:47:30.895Z,21.77
2022-07-26T16:49:57.415Z,21.72
2022-07-26T16:52:23.915Z,20.95
2022-07-26T16:54:50.428Z,20.45
2022-07-26T16:57:16.940Z,18.73
2022-07-26T16:59:43.728Z,18.86
2022-07-26T17:02:10.240Z,18.56
2022-07-26T17:04:36.910Z,17.78
2022-07-26T17:07:26.323Z,17.83
2022-07-26T17:09:50.305Z,17.79
2022-07-26T17:12:16.951Z,17.73
2022-07-26T17:14:43.564Z,16.91
2022-07-26T17:17:10.128Z,16.80
2022-07-26T17:19:36.644Z,16.74
2022-07-26T17:22:03.735Z,17.21
2022-07-26T17:24:32.915Z,17.57
2022-07-26T17:27:00.953Z,17.74
2022-07-26T17:29:27.611Z,16.71
2022-07-26T17:31:55.065Z,16.57
2022-07-26T17:34:21.800Z,16.79
2022-07-26T17:36:57.496Z,16.87
2022-07-26T17:39:34.119Z,17.28
2022-07-26T17:42:15.011Z,17.80
2022-07-26T17:44:42.453Z,17.96
2022-07-26T17:47:28.121Z,19.14
2022-07-26T17:50:26.278Z,18.25
2022-07-26T17:52:49.781Z,17.89
2022-07-26T17:55:18.340Z,17.20
2022-07-26T17:57:45.919Z,17.30
2022-07-26T18:00:13.573Z,17.09
2022-07-26T18:02:40.330Z,17.27
2022-07-26T18:05:07.138Z,16.94
2022-07-26T18:07:33.675Z,16.74
2022-07-26T18:10:00.855Z,16.44
2022-07-26T18:12:27.499Z,16.57
2022-07-26T18:14:54.194Z,16.24
2022-07-26T18:17:20.773Z,16.02
2022-07-26T18:19:47.339Z,15.96
2022-07-26T18:22:13.966Z,15.73
2022-07-26T18:24:40.675Z,15.75
2022-07-26T18:27:10.868Z,15.77
2022-07-26T18:29:37.395Z,15.74
2022-07-26T18:32:04.144Z,15.63
2022-07-26T18:34:30.663Z,15.47
2022-07-26T18:36:57.289Z,15.42
2022-07-26T18:39:23.812Z,15.44
2022-07-26T18:41:50.474Z,15.24
2022-07-26T18:44:17.148Z,15.13
2022-07-26T18:46:43.787Z,14.86
2022-07-26T18:49:19.755Z,14.79
2022-07-26T18:51:48.432Z,14.75
2022-07-26T18:54:15.619Z,14.88
2022-07-26T18:56:42.348Z,14.86
2022-07-26T18:59:09.910Z,14.89
2022-07-26T19:01:36.876Z,14.87
2022-07-26T19:04:06.817Z,14.79
2022-07-26T19:06:34.693Z,14.78
2022-07-26T19:09:04.572Z,14.88
2022-07-26T19:11:32.945Z,14.93
2022-07-26T19:14:04.353Z,14.86
2022-07-26T19:16:31.013Z,14.64
2022-07-26T19:18:57.785Z,14.64
2022-07-26T19:21:24.557Z,14.65
2022-07-26T19:23:51.051Z,14.63
2022-07-26T19:26:17.534Z,14.78
2022-07-26T19:28:47.258Z,14.66
2022-07-26T19:31:13.849Z,14.48
2022-07-26T19:33:40.722Z,14.57
2022-07-26T19:36:07.792Z,14.42
2022-07-26T19:38:34.530Z,14.45
2022-07-26T19:41:01.671Z,14.42
2022-07-26T19:43:28.864Z,14.60
2022-07-26T19:45:55.568Z,14.29
2022-07-26T19:48:22.104Z,14.22
2022-07-26T19:50:48.773Z,14.33
2022-07-26T19:53:15.302Z,14.17
2022-07-26T19:55:42.442Z,14.05
2022-07-26T19:58:09.293Z,14.07
2022-07-26T20:00:35.997Z,13.82
2022-07-26T20:03:02.570Z,14.00
2022-07-26T20:05:29.117Z,14.03
2022-07-26T20:07:55.640Z,13.91
2022-07-26T20:10:22.203Z,14.13
2022-07-26T20:12:48.692Z,13.95
2022-07-26T20:15:15.199Z,13.96
2022-07-26T20:17:41.863Z,14.30
2022-07-26T20:20:09.488Z,14.18
2022-07-26T20:22:36.591Z,14.19
2022-07-26T20:25:03.385Z,14.10
2022-07-26T20:27:30.057Z,14.17
2022-07-26T20:30:00.900Z,14.16
2022-07-26T20:32:27.929Z,13.99
2022-07-26T20:34:54.562Z,13.88
2022-07-26T20:37:21.087Z,13.93
2022-07-26T20:39:47.662Z,14.10
2022-07-26T20:42:21.410Z,13.88
2022-07-26T20:44:48.481Z,14.13
2022-07-26T20:47:15.387Z,14.02
2022-07-26T20:49:41.941Z,13.82
2022-07-26T20:52:08.480Z,13.80
2022-07-26T20:54:35.074Z,13.90
2022-07-26T20:57:04.547Z,13.97
2022-07-26T20:59:32.281Z,14.10
2022-07-26T21:01:59.056Z,14.19
2022-07-26T21:04:25.825Z,14.09
2022-07-26T21:06:52.329Z,14.02
2022-07-26T21:09:19.775Z,13.83
2022-07-26T21:11:46.376Z,13.77
2022-07-26T21:14:12.928Z,13.99
2022-07-26T21:16:39.496Z,13.78
2022-07-26T21:19:06.125Z,13.76
2022-07-26T21:21:34.171Z,13.72
2022-07-26T21:24:00.737Z,13.73
2022-07-26T21:26:29.317Z,13.81
2022-07-26T21:28:55.800Z,13.80
2022-07-26T21:31:22.367Z,13.68
2022-07-26T21:33:48.988Z,13.76
2022-07-26T21:36:15.493Z,13.69
2022-07-26T21:38:42.721Z,13.43
2022-07-26T21:41:09.357Z,13.20
2022-07-26T21:43:39.840Z,13.18
2022-07-26T21:46:11.936Z,13.09
2022-07-26T21:48:39.587Z,13.17
2022-07-26T21:51:06.153Z,13.33
2022-07-26T21:53:32.642Z,13.45
2022-07-26T21:55:59.155Z,13.48
2022-07-26T21:58:27.975Z,13.28
2022-07-26T22:01:03.409Z,13.55
2022-07-26T22:03:36.343Z,13.39
2022-07-26T22:06:03.341Z,13.41
2022-07-26T22:08:29.944Z,13.51
2022-07-26T22:10:56.498Z,13.30
2022-07-26T22:13:23.848Z,13.41
2022-07-26T22:15:50.796Z,13.24
2022-07-26T22:18:20.159Z,13.28
2022-07-26T22:20:49.954Z,13.29
2022-07-26T22:23:18.081Z,13.12
2022-07-26T22:25:45.064Z,13.17
2022-07-26T22:28:17.872Z,12.97
2022-07-26T22:30:45.465Z,13.02
2022-07-26T22:33:11.984Z,13.07
2022-07-26T22:35:38.784Z,12.97
2022-07-26T22:38:09.139Z,13.07
2022-07-26T22:40:37.107Z,13.09
2022-07-26T22:43:04.052Z,13.15
2022-07-26T22:45:31.074Z,13.04
2022-07-26T22:47:58.204Z,13.10
2022-07-26T22:50:25.316Z,13.19
2022-07-26T22:52:52.580Z,13.19
2022-07-26T22:55:19.729Z,13.32
2022-07-26T22:57:46.374Z,13.34
2022-07-26T23:00:16.488Z,13.29
2022-07-26T23:02:43.175Z,13.03
2022-07-26T23:05:10.462Z,12.95
2022-07-26T23:07:37.585Z,13.16
2022-07-26T23:10:06.064Z,12.97
2022-07-26T23:12:32.901Z,12.82
2022-07-26T23:14:59.804Z,13.10
2022-07-26T23:17:26.279Z,13.04
2022-07-26T23:19:52.788Z,12.89
2022-07-26T23:22:19.364Z,13.10
2022-07-26T23:24:45.817Z,12.95
2022-07-26T23:27:15.506Z,12.82
2022-07-26T23:29:46.153Z,13.02
2022-07-26T23:32:14.794Z,13.01
2022-07-26T23:34:41.253Z,12.98
2022-07-26T23:37:07.715Z,13.15
2022-07-26T23:39:34.385Z,12.91
2022-07-26T23:42:02.873Z,12.89
2022-07-26T23:44:33.837Z,13.06
2022-07-26T23:47:00.471Z,13.33
2022-07-26T23:49:27.067Z,13.29
2022-07-26T23:51:53.918Z,13.32
2022-07-26T23:54:20.524Z,13.07
2022-07-26T23:56:47.535Z,12.99
2022-07-26T23:59:14.441Z,13.10
